Time;durP1;ratioP1;P1;durP2;ratioP2;P2;SDS_P1;SDS_P2;PMS_P1;PMS_P2;Temp;Humidity;BMP_temperature;BMP_pressure;BME280_temperature;BME280_humidity;BME280_pressure;Samples;Min_cycle;Max_cycle;Signal;HPM_P1;HPM_P2
2022/08/10 00:01:37;;;;;;;;;;;;;;;25.59;45.37;95091.88;4989798;28;19980;-58
2022/08/10 00:04:03;;;;;;;;;;;;;;;25.52;45.42;95095.25;4991562;28;20448;-57
2022/08/10 00:06:28;;;;;;;;;;;;;;;25.48;45.54;95097.53;4986651;28;19918;-56
2022/08/10 00:08:53;;;;;;;;;;;;;;;25.53;45.80;95093.97;4999210;28;19918;-59
2022/08/10 00:11:19;;;;;;;;;;;;;;;25.55;45.66;95091.47;4990961;28;19913;-58
2022/08/10 00:13:44;;;;;;;;;;;;;;;25.49;45.46;95090.81;5003917;28;20016;-60
2022/08/10 00:16:10;;;;;;;;;;;;;;;25.41;45.71;95087.97;4986585;28;19928;-58
2022/08/10 00:18:36;;;;;;;;;;;;;;;25.46;45.86;95089.13;4987412;28;19933;-59
2022/08/10 00:21:02;;;;;;;;;;;;;;;25.41;45.56;95092.66;4989749;28;19929;-59
2022/08/10 00:23:27;;;;;;;;;;;;;;;25.34;45.95;95090.56;4995847;28;19913;-57
2022/08/10 00:25:53;;;;;;;;;;;;;;;25.21;46.25;95068.63;4993209;28;20384;-57
2022/08/10 00:28:18;;;;;;;;;;;;;;;25.36;45.91;95085.31;4992930;28;19979;-57
2022/08/10 00:30:43;;;;;;;;;;;;;;;25.36;45.64;95085.31;4985611;28;20304;-58
2022/08/10 00:33:09;;;;;;;;;;;;;;;25.31;46.05;95085.41;4996219;28;19925;-58
2022/08/10 00:35:34;;;;;;;;;;;;;;;25.32;45.89;95085.63;4985049;28;20490;-57
2022/08/10 00:37:59;;;;;;;;;;;;;;;25.26;45.89;95086.22;4970147;28;19921;-58
2022/08/10 00:40:24;;;;;;;;;;;;;;;25.26;46.42;95081.50;4994027;28;20432;-58
2022/08/10 00:42:50;;;;;;;;;;;;;;;25.23;46.16;95092.72;4997081;28;19917;-57
2022/08/10 00:45:15;;;;;;;;;;;;;;;25.19;46.77;95098.50;4980763;28;19921;-57
2022/08/10 00:47:40;;;;;;;;;;;;;;;25.14;46.72;95091.13;4995654;28;19950;-59
2022/08/10 00:50:06;;;;;;;;;;;;;;;24.98;47.17;95072.91;4985245;28;19975;-60
2022/08/10 00:52:31;;;;;;;;;;;;;;;25.15;46.99;95095.31;4997094;28;19968;-57
2022/08/10 00:54:56;;;;;;;;;;;;;;;25.19;47.10;95095.75;4983671;28;20016;-59
2022/08/10 00:57:22;;;;;;;;;;;;;;;25.17;47.12;95095.53;4984442;28;20458;-59
2022/08/10 00:59:47;;;;;;;;;;;;;;;25.18;46.55;95091.53;4985174;28;20312;-57
2022/08/10 01:02:12;;;;;;;;;;;;;;;25.11;46.72;95100.34;4987858;28;19971;-57
2022/08/10 01:04:38;;;;;;;;;;;;;;;25.10;47.26;95098.88;5003050;28;19925;-58
2022/08/10 01:07:22;;;;;;;;;;;;;;;25.10;47.32;95107.06;4990360;28;19917;-56
2022/08/10 01:09:58;;;;;;;;;;;;;;;25.14;47.01;95096.59;4991064;28;20381;-59
2022/08/10 01:12:39;;;;;;;;;;;;;;;25.08;47.26;95098.66;4987142;28;20675;-58
2022/08/10 01:15:07;;;;;;;;;;;;;;;25.04;47.42;95105.66;4984479;28;19929;-58
2022/08/10 01:17:32;;;;;;;;;;;;;;;24.97;48.03;95101.50;4988414;28;19928;-58
2022/08/10 01:20:03;;;;;;;;;;;;;;;25.02;47.62;95106.19;4981051;28;19914;-59
2022/08/10 01:22:47;;;;;;;;;;;;;;;24.98;47.46;95105.72;4999693;28;19960;-58
2022/08/10 01:25:12;;;;;;;;;;;;;;;25.00;47.40;95105.94;4984872;28;19937;-59
2022/08/10 01:27:49;;;;;;;;;;;;;;;24.98;46.86;95100.25;4984095;28;20372;-60
2022/08/10 01:30:17;;;;;;;;;;;;;;;25.00;46.43;95103.22;4984779;28;19968;-58
2022/08/10 01:32:47;;;;;;;;;;;;;;;25.00;46.18;95103.22;4988242;28;19913;-58
2022/08/10 01:35:14;;;;;;;;;;;;;;;25.04;46.14;95100.94;4983204;28;20320;-66
2022/08/10 01:37:43;;;;;;;;;;;;;;;25.06;46.38;95094.94;5000151;28;20443;-58
2022/08/10 01:40:08;;;;;;;;;;;;;;;25.03;46.42;95102.19;4988611;28;19926;-61
2022/08/10 01:42:34;;;;;;;;;;;;;;;24.94;46.68;95097.06;5012366;28;19983;-58
2022/08/10 01:45:00;;;;;;;;;;;;;;;24.98;46.76;95097.50;5010520;28;20321;-61
2022/08/10 01:50:17;;;;;;;;;;;;;;;24.87;46.87;95089.47;4997391;28;19960;-58
2022/08/10 01:52:42;;;;;;;;;;;;;;;24.81;47.42;95090.06;5002875;28;19921;-58
2022/08/10 01:55:07;;;;;;;;;;;;;;;24.80;47.03;95083.84;4999317;28;20015;-58
2022/08/10 01:57:33;;;;;;;;;;;;;;;24.82;47.38;95081.34;4998842;28;19921;-58
2022/08/10 01:59:58;;;;;;;;;;;;;;;24.86;47.38;95093.44;4999484;28;19917;-59
2022/08/10 02:02:23;;;;;;;;;;;;;;;24.85;47.02;95081.03;4991521;28;19922;-59
2022/08/10 02:04:48;;;;;;;;;;;;;;;24.79;47.44;95081.66;4977375;28;20366;-59
2022/08/10 02:07:15;;;;;;;;;;;;;;;24.81;47.57;95084.59;4998304;28;19924;-58
2022/08/10 02:09:41;;;;;;;;;;;;;;;24.83;47.23;95088.28;4996114;28;19914;-58
2022/08/10 02:12:08;;;;;;;;;;;;;;;24.81;47.61;95084.59;4995554;28;20307;-58
2022/08/10 02:14:34;;;;;;;;;;;;;;;24.78;47.63;95085.63;4999059;28;20000;-59
2022/08/10 02:17:00;;;;;;;;;;;;;;;24.74;47.86;95079.69;4999345;28;20000;-58
2022/08/10 02:19:25;;;;;;;;;;;;;;;24.70;47.78;95084.75;4978797;28;20030;-58
2022/08/10 02:21:51;;;;;;;;;;;;;;;24.73;47.62;95086.44;5008838;28;20316;-58
2022/08/10 02:24:16;;;;;;;;;;;;;;;24.77;47.49;95081.41;4984449;28;20012;-59
2022/08/10 02:26:42;;;;;;;;;;;;;;;24.77;47.88;95078.66;5000697;28;19925;-58
2022/08/10 02:29:07;;;;;;;;;;;;;;;24.79;47.80;95087.09;4987748;28;19914;-58
2022/08/10 02:31:34;;;;;;;;;;;;;;;24.77;48.33;95078.66;5004563;28;20304;-60
2022/08/10 02:34:00;;;;;;;;;;;;;;;24.65;48.53;95089.03;4998818;28;20012;-58
2022/08/10 02:36:25;;;;;;;;;;;;;;;24.61;48.65;95093.28;5002311;28;20005;-60
2022/08/10 02:38:54;;;;;;;;;;;;;;;24.69;48.53;95089.44;5002650;28;19925;-64
2022/08/10 02:41:35;;;;;;;;;;;;;;;24.75;48.53;95098.31;5002300;28;19921;-62
2022/08/10 02:44:12;;;;;;;;;;;;;;;24.78;48.27;95100.00;4998668;28;20146;-57
2022/08/10 02:46:49;;;;;;;;;;;;;;;24.80;48.31;95094.03;5006720;28;19918;-65
2022/08/10 02:49:19;;;;;;;;;;;;;;;24.82;47.96;95097.00;4990270;28;20438;-62
2022/08/10 02:51:46;;;;;;;;;;;;;;;24.82;47.97;95098.47;5019462;28;19917;-61
2022/08/10 02:54:15;;;;;;;;;;;;;;;24.83;47.86;95091.75;4993180;28;20400;-65
2022/08/10 02:56:42;;;;;;;;;;;;;;;24.84;48.26;95098.69;5002689;28;19913;-65
2022/08/10 02:59:07;;;;;;;;;;;;;;;24.86;48.31;95098.19;4988166;28;20020;-59
2022/08/10 03:01:33;;;;;;;;;;;;;;;24.86;48.41;95098.91;4997093;28;20009;-64
2022/08/10 03:03:59;;;;;;;;;;;;;;;24.86;48.09;95092.72;4990601;28;19906;-63
2022/08/10 03:06:25;;;;;;;;;;;;;;;24.88;48.53;95101.84;5002271;28;20443;-60
2022/08/10 03:08:50;;;;;;;;;;;;;;;24.88;48.06;95099.13;4993057;28;19983;-57
2022/08/10 03:11:22;;;;;;;;;;;;;;;24.90;47.95;95104.06;4994508;28;19941;-57
2022/08/10 03:13:48;;;;;;;;;;;;;;;24.91;47.85;95095.34;5000502;28;20003;-57
2022/08/10 03:16:13;;;;;;;;;;;;;;;24.78;48.13;95080.16;4986812;28;20012;-56
2022/08/10 03:18:38;;;;;;;;;;;;;;;24.90;48.04;95102.09;5017709;28;19921;-58
2022/08/10 03:21:03;;;;;;;;;;;;;;;24.90;48.32;95099.38;5007788;28;20461;-67
2022/08/10 03:23:29;;;;;;;;;;;;;;;24.92;48.19;95096.84;4986900;28;19917;-66
2022/08/10 03:25:55;;;;;;;;;;;;;;;24.92;48.11;95104.31;4986758;28;19944;-65
2022/08/10 03:28:24;;;;;;;;;;;;;;;24.93;48.27;95109.25;4990385;28;19968;-63
2022/08/10 03:30:50;;;;;;;;;;;;;;;24.92;48.58;95107.78;4986373;28;19921;-62
2022/08/10 03:33:15;;;;;;;;;;;;;;;24.91;48.55;95108.28;5000779;28;20074;-59
2022/08/10 03:35:40;;;;;;;;;;;;;;;24.88;48.33;95112.78;5001712;28;20407;-64
2022/08/10 03:38:05;;;;;;;;;;;;;;;24.91;48.19;95106.28;4997716;28;19917;-67
2022/08/10 03:40:31;;;;;;;;;;;;;;;24.90;48.27;95115.75;4985296;28;20381;-58
2022/08/10 03:42:57;;;;;;;;;;;;;;;24.88;48.42;95115.50;4984498;28;19993;-61
2022/08/10 03:45:22;;;;;;;;;;;;;;;24.91;48.16;95114.47;4997336;28;20006;-65
2022/08/10 03:47:47;;;;;;;;;;;;;;;24.89;48.49;95117.00;5006965;28;19925;-66
2022/08/10 03:50:13;;;;;;;;;;;;;;;24.90;48.35;95115.75;4990647;28;20436;-65
2022/08/10 03:52:38;;;;;;;;;;;;;;;24.90;48.61;95129.41;5015655;28;19976;-66
2022/08/10 03:55:03;;;;;;;;;;;;;;;24.90;48.23;95131.41;5001594;28;20196;-64
2022/08/10 03:57:29;;;;;;;;;;;;;;;24.90;48.69;95123.97;4986815;28;19953;-65
2022/08/10 03:59:54;;;;;;;;;;;;;;;24.89;48.37;95122.47;4985929;28;20288;-66
2022/08/10 04:02:20;;;;;;;;;;;;;;;24.87;48.77;95119.53;5015226;28;19924;-62
2022/08/10 04:04:45;;;;;;;;;;;;;;;24.87;48.43;95122.25;5006659;28;19917;-61
2022/08/10 04:07:10;;;;;;;;;;;;;;;24.87;48.98;95127.72;4994890;28;19917;-66
2022/08/10 04:09:38;;;;;;;;;;;;;;;24.87;48.48;95133.19;5013689;28;20392;-62
2022/08/10 04:12:03;;;;;;;;;;;;;;;24.86;48.89;95134.44;4993662;28;19921;-63
2022/08/10 04:14:29;;;;;;;;;;;;;;;24.87;48.96;95133.19;4989587;28;19921;-58
2022/08/10 04:16:54;;;;;;;;;;;;;;;24.85;48.72;95135.66;4990962;28;19980;-67
2022/08/10 04:19:19;;;;;;;;;;;;;;;24.88;48.80;95136.66;4997846;28;20344;-66
2022/08/10 04:21:46;;;;;;;;;;;;;;;24.68;49.15;95098.16;5001695;28;20078;-65
2022/08/10 04:24:12;;;;;;;;;;;;;;;24.89;48.90;95132.66;5002680;28;19918;-66
2022/08/10 04:26:37;;;;;;;;;;;;;;;24.90;49.02;95137.63;4990932;28;19920;-64
2022/08/10 04:29:02;;;;;;;;;;;;;;;24.90;49.02;95143.06;5002533;28;20396;-66
2022/08/10 04:31:28;;;;;;;;;;;;;;;24.90;48.76;95137.63;4985868;28;20305;-63
2022/08/10 04:33:53;;;;;;;;;;;;;;;24.92;48.66;95134.38;4987832;28;19922;-58
2022/08/10 04:36:19;;;;;;;;;;;;;;;24.92;48.91;95140.56;4998974;28;19925;-61
2022/08/10 04:38:44;;;;;;;;;;;;;;;24.93;49.42;95139.31;5000252;28;20428;-63
2022/08/10 04:41:10;;;;;;;;;;;;;;;24.95;48.89;95134.06;5002909;28;19913;-66
2022/08/10 04:43:35;;;;;;;;;;;;;;;24.97;49.17;95139.75;4990214;28;20423;-58
2022/08/10 04:46:00;;;;;;;;;;;;;;;24.99;49.38;95142.75;4999142;28;19921;-64
2022/08/10 04:48:26;;;;;;;;;;;;;;;25.03;49.26;95140.44;4988329;28;19914;-58
2022/08/10 04:50:51;;;;;;;;;;;;;;;25.06;49.48;95139.41;4984905;28;20344;-61
2022/08/10 04:53:16;;;;;;;;;;;;;;;25.08;49.48;95131.44;4997143;28;19914;-58
2022/08/10 04:55:41;;;;;;;;;;;;;;;25.13;49.92;95141.56;4988664;28;19922;-62
2022/08/10 04:58:07;;;;;;;;;;;;;;;25.16;50.16;95143.25;4984551;28;19992;-62
2022/08/10 05:00:32;;;;;;;;;;;;;;;25.19;49.84;95141.50;4987325;28;20036;-63
2022/08/10 05:02:57;;;;;;;;;;;;;;;25.22;50.22;95141.19;4986020;28;20389;-67
2022/08/10 05:05:23;;;;;;;;;;;;;;;25.26;50.58;95147.09;4995601;28;20649;-58
2022/08/10 05:07:48;;;;;;;;;;;;;;;25.35;50.64;95138.50;4982666;28;20830;-59
2022/08/10 05:10:13;;;;;;;;;;;;;;;25.44;50.30;95140.84;4985675;28;20008;-60
2022/08/10 05:12:39;;;;;;;;;;;;;;;25.56;50.25;95145.66;4990982;28;19952;-57
2022/08/10 05:15:10;;;;;;;;;;;;;;;25.69;50.16;95144.97;4983390;28;19928;-57
2022/08/10 05:17:36;;;;;;;;;;;;;;;25.83;50.01;95139.78;4993643;28;20016;-58
2022/08/10 05:20:02;;;;;;;;;;;;;;;25.95;49.84;95138.31;5007755;28;20369;-60
2022/08/10 05:22:27;;;;;;;;;;;;;;;26.10;49.40;95135.84;4986071;28;19923;-60
2022/08/10 05:24:52;;;;;;;;;;;;;;;26.23;49.04;95135.84;4986397;28;19914;-62
2022/08/10 05:27:18;;;;;;;;;;;;;;;26.35;49.03;95135.16;4985770;28;19983;-64
2022/08/10 05:29:43;;;;;;;;;;;;;;;26.54;49.13;95135.03;4996770;28;19968;-61
2022/08/10 05:32:09;;;;;;;;;;;;;;;26.69;48.88;95140.72;4995991;28;20417;-60
2022/08/10 05:34:34;;;;;;;;;;;;;;;26.80;48.44;95146.72;4985082;28;19929;-61
2022/08/10 05:37:00;;;;;;;;;;;;;;;26.94;48.87;95137.97;4983996;28;20331;-62
2022/08/10 05:39:25;;;;;;;;;;;;;;;27.09;48.51;95145.66;4986934;28;19914;-63
2022/08/10 05:41:51;;;;;;;;;;;;;;;27.18;48.23;95137.72;4999632;28;19921;-63
2022/08/10 05:44:16;;;;;;;;;;;;;;;27.27;48.30;95131.78;4983977;28;20324;-62
2022/08/10 05:46:41;;;;;;;;;;;;;;;27.41;47.91;95138.72;4985801;28;19953;-58
2022/08/10 05:49:06;;;;;;;;;;;;;;;27.52;47.62;95133.00;4984372;28;19945;-60
2022/08/10 05:51:32;;;;;;;;;;;;;;;27.63;47.48;95143.72;4985819;28;20305;-60
2022/08/10 05:53:58;;;;;;;;;;;;;;;27.74;47.54;95133.97;4983284;28;20385;-62
2022/08/10 05:56:23;;;;;;;;;;;;;;;27.81;47.04;95138.78;4993925;28;19932;-61
2022/08/10 05:58:48;;;;;;;;;;;;;;;27.94;46.69;95141.47;4990462;28;19960;-60
2022/08/10 06:01:14;;;;;;;;;;;;;;;28.05;46.97;95138.44;4996588;28;19921;-64
2022/08/10 06:03:42;;;;;;;;;;;;;;;28.13;46.53;95142.03;5004491;28;19995;-60
2022/08/10 06:06:07;;;;;;;;;;;;;;;28.21;46.50;95153.78;5006491;28;19916;-61
2022/08/10 06:08:34;;;;;;;;;;;;;;;28.23;46.63;95143.72;4987905;28;19921;-60
2022/08/10 06:11:01;;;;;;;;;;;;;;;28.38;45.63;95140.34;4996238;28;19967;-59
2022/08/10 06:16:11;;;;;;;;;;;;;;;28.53;45.68;95151.44;4997906;28;19992;-61
2022/08/10 06:18:36;;;;;;;;;;;;;;;28.57;45.70;95146.34;4997625;28;19917;-57
2022/08/10 06:21:01;;;;;;;;;;;;;;;28.64;45.01;95140.16;4994435;28;19980;-62
2022/08/10 06:23:30;;;;;;;;;;;;;;;28.70;44.87;95143.50;4988896;28;20448;-64
2022/08/10 06:25:55;;;;;;;;;;;;;;;28.73;44.68;95138.41;5001988;28;19975;-61
2022/08/10 06:28:21;;;;;;;;;;;;;;;28.85;44.88;95144.34;4992171;28;19918;-61
2022/08/10 06:30:46;;;;;;;;;;;;;;;28.89;45.02;95150.97;4991340;28;19918;-60
2022/08/10 06:33:11;;;;;;;;;;;;;;;29.01;44.74;95151.38;4995589;28;20395;-67
2022/08/10 06:35:37;;;;;;;;;;;;;;;29.08;44.13;95156.91;4987236;28;19926;-66
2022/08/10 06:38:03;;;;;;;;;;;;;;;29.16;44.08;95151.44;5003531;28;20011;-65
2022/08/10 06:40:30;;;;;;;;;;;;;;;29.24;43.73;95147.50;5002122;28;20308;-65
2022/08/10 06:42:55;;;;;;;;;;;;;;;29.25;44.01;95155.19;4991981;28;19925;-64
2022/08/10 06:45:21;;;;;;;;;;;;;;;29.31;43.35;95152.25;5004255;28;19933;-64
2022/08/10 06:48:06;;;;;;;;;;;;;;;29.20;43.71;95147.06;4991592;28;20564;-61
2022/08/10 06:50:35;;;;;;;;;;;;;;;29.06;43.64;95125.72;5007579;28;19909;-62
2022/08/10 06:53:00;;;;;;;;;;;;;;;29.07;44.25;95149.94;5016618;23;19925;-59
2022/08/10 06:55:26;;;;;;;;;;;;;;;29.04;44.89;95142.78;5002698;28;19924;-57
2022/08/10 06:57:51;;;;;;;;;;;;;;;28.93;44.27;95145.13;4987147;28;19979;-59
2022/08/10 07:00:16;;;;;;;;;;;;;;;28.84;45.28;95146.34;4990857;28;19925;-59
2022/08/10 07:02:47;;;;;;;;;;;;;;;28.76;45.20;95153.84;4991473;28;19918;-59
2022/08/10 07:05:18;;;;;;;;;;;;;;;28.70;45.20;95149.78;4989058;28;19932;-58
2022/08/10 07:07:43;;;;;;;;;;;;;;;28.64;45.12;95140.16;4992214;28;19925;-57
2022/08/10 07:10:08;;;;;;;;;;;;;;;28.61;44.20;95141.22;4984310;28;19922;-59
2022/08/10 07:12:33;;;;;;;;;;;;;;;28.54;44.57;95144.69;4982173;28;20408;-59
2022/08/10 07:14:59;;;;;;;;;;;;;;;28.45;44.75;95150.69;4988794;28;19921;-59
2022/08/10 07:17:24;;;;;;;;;;;;;;;28.40;44.85;95135.81;4990294;28;19932;-60
2022/08/10 07:19:58;;;;;;;;;;;;;;;28.35;45.34;95136.66;4984740;28;19999;-57
2022/08/10 07:22:24;;;;;;;;;;;;;;;28.33;44.50;95138.50;4991901;28;19921;-60
2022/08/10 07:24:50;;;;;;;;;;;;;;;28.28;44.74;95136.63;4987813;28;20428;-57
2022/08/10 07:27:15;;;;;;;;;;;;;;;28.24;44.47;95141.72;4989946;28;19924;-59
2022/08/10 07:29:42;;;;;;;;;;;;;;;28.22;44.90;95138.78;4983373;28;19918;-59
2022/08/10 07:32:07;;;;;;;;;;;;;;;28.22;44.48;95144.28;4979992;28;20055;-59
2022/08/10 07:34:32;;;;;;;;;;;;;;;28.17;45.06;95136.91;4979425;28;19914;-59
2022/08/10 07:36:59;;;;;;;;;;;;;;;28.17;44.59;95136.19;4979823;28;19920;-58
2022/08/10 07:39:24;;;;;;;;;;;;;;;28.11;44.82;95139.06;4983156;28;20749;-57
2022/08/10 07:41:49;;;;;;;;;;;;;;;28.09;45.14;95127.88;4983648;28;19918;-59
2022/08/10 07:44:15;;;;;;;;;;;;;;;28.08;45.57;95140.09;4984593;28;19918;-59
2022/08/10 07:46:42;;;;;;;;;;;;;;;28.04;45.30;95134.22;4980480;28;19918;-58
2022/08/10 07:49:09;;;;;;;;;;;;;;;28.00;45.96;95133.81;4995627;28;19913;-60
2022/08/10 07:51:34;;;;;;;;;;;;;;;27.99;45.81;95135.09;4991752;28;19917;-59
2022/08/10 07:54:00;;;;;;;;;;;;;;;27.84;45.04;95109.53;5004676;28;19928;-61
2022/08/10 07:56:26;;;;;;;;;;;;;;;27.99;45.63;95131.63;4985600;28;19956;-60
2022/08/10 07:58:56;;;;;;;;;;;;;;;27.93;45.59;95129.00;4985620;28;19953;-59
2022/08/10 08:01:23;;;;;;;;;;;;;;;27.91;45.30;95115.06;4985493;28;20020;-58
2022/08/10 08:03:48;;;;;;;;;;;;;;;27.93;45.49;95123.50;4980426;28;19906;-61
2022/08/10 08:06:13;;;;;;;;;;;;;;;27.94;45.16;95127.72;4981253;28;20428;-59
2022/08/10 08:08:39;;;;;;;;;;;;;;;27.91;44.83;95115.06;4972868;28;19917;-58
2022/08/10 08:11:04;;;;;;;;;;;;;;;27.89;45.09;95117.63;4983441;28;20413;-58
2022/08/10 08:13:30;;;;;;;;;;;;;;;27.77;45.04;95105.44;4998299;28;19925;-58
2022/08/10 08:15:56;;;;;;;;;;;;;;;27.86;44.91;95123.44;4984355;28;19913;-60
2022/08/10 08:18:22;;;;;;;;;;;;;;;27.84;45.43;95117.75;4985093;28;20553;-58
2022/08/10 08:20:47;;;;;;;;;;;;;;;27.85;44.91;95117.22;4999815;28;20412;-59
2022/08/10 08:23:13;;;;;;;;;;;;;;;27.87;44.48;95111.91;4979711;28;19914;-60
2022/08/10 08:25:38;;;;;;;;;;;;;;;27.91;44.62;95117.81;4982797;28;20009;-58
2022/08/10 08:28:04;;;;;;;;;;;;;;;27.95;43.94;95104.50;4979873;28;19980;-58
2022/08/10 08:30:29;;;;;;;;;;;;;;;27.88;44.10;95110.66;4983363;28;19917;-58
2022/08/10 08:33:11;;;;;;;;;;;;;;;27.87;44.30;95103.69;4982920;28;20430;-59
2022/08/10 08:35:36;;;;;;;;;;;;;;;27.83;44.86;95103.31;4979217;28;19918;-57
2022/08/10 08:38:02;;;;;;;;;;;;;;;27.85;44.28;95105.50;4980927;28;19941;-56
2022/08/10 08:40:35;;;;;;;;;;;;;;;27.84;44.38;95104.03;4981599;28;19937;-59
2022/08/10 08:43:36;;;;;;;;;;;;;;;27.84;44.29;95104.75;4982292;28;19910;-57
2022/08/10 08:46:08;;;;;;;;;;;;;;;27.82;44.62;95101.81;4960222;28;19921;-57
2022/08/10 08:48:33;;;;;;;;;;;;;;;27.87;44.60;95102.97;4967668;28;19964;-58
2022/08/10 08:51:04;;;;;;;;;;;;;;;27.84;44.85;95102.00;4989727;28;19949;-58
2022/08/10 08:53:33;;;;;;;;;;;;;;;27.84;44.79;95102.00;4998641;28;19928;-62
2022/08/10 08:56:02;;;;;;;;;;;;;;;27.82;44.66;95101.81;4984051;28;19918;-61
2022/08/10 08:58:46;;;;;;;;;;;;;;;27.83;44.62;95097.06;4984653;28;19914;-61
2022/08/10 09:01:22;;;;;;;;;;;;;;;27.83;44.67;95091.56;4985560;28;19917;-58
2022/08/10 09:03:57;;;;;;;;;;;;;;;27.84;44.44;95093.78;4980766;28;20424;-58
2022/08/10 09:06:35;;;;;;;;;;;;;;;27.84;44.22;95096.53;4984904;28;19980;-58
2022/08/10 09:09:21;;;;;;;;;;;;;;;27.87;44.55;95098.19;4986738;28;19967;-62
2022/08/10 09:12:01;;;;;;;;;;;;;;;27.90;44.47;95101.88;4984925;28;19969;-58
2022/08/10 09:14:39;;;;;;;;;;;;;;;27.89;44.79;95090.19;4984119;28;19917;-57
2022/08/10 09:17:23;;;;;;;;;;;;;;;27.90;43.94;95086.13;4981193;28;20088;-58
2022/08/10 09:19:54;;;;;;;;;;;;;;;27.93;44.10;95085.06;4985520;28;20369;-57
2022/08/10 09:22:20;;;;;;;;;;;;;;;27.97;44.34;95090.97;4988514;28;19913;-57
2022/08/10 09:24:51;;;;;;;;;;;;;;;28.02;44.13;95086.59;4983910;28;20292;-58
2022/08/10 09:27:20;;;;;;;;;;;;;;;28.12;43.60;95084.88;4983353;28;19924;-58
2022/08/10 09:29:51;;;;;;;;;;;;;;;28.21;43.45;95087.88;5003010;28;19921;-58
2022/08/10 09:32:22;;;;;;;;;;;;;;;28.34;43.96;95079.53;4996632;28;19917;-58
2022/08/10 09:35:06;;;;;;;;;;;;;;;28.51;43.31;95071.56;4999618;28;20414;-58
2022/08/10 09:37:36;;;;;;;;;;;;;;;28.64;42.55;95068.69;5001245;28;19992;-58
2022/08/10 09:40:03;;;;;;;;;;;;;;;28.76;42.52;95076.84;4999236;28;19924;-58
2022/08/10 09:42:47;;;;;;;;;;;;;;;28.89;42.32;95079.47;4988007;28;20036;-59
2022/08/10 09:45:15;;;;;;;;;;;;;;;29.03;42.01;95074.56;4984251;28;20363;-58
2022/08/10 09:47:46;;;;;;;;;;;;;;;29.17;41.69;95065.63;4970137;28;19957;-59
2022/08/10 09:50:15;;;;;;;;;;;;;;;29.34;41.04;95071.38;4997637;28;20370;-57
2022/08/10 09:52:40;;;;;;;;;;;;;;;29.47;40.17;95071.94;5001967;28;20312;-57
2022/08/10 09:55:14;;;;;;;;;;;;;;;29.63;40.20;95064.47;4999837;28;19921;-55
2022/08/10 09:57:54;;;;;;;;;;;;;;;29.74;39.08;95062.78;4998583;28;19932;-56
2022/08/10 10:00:20;;;;;;;;;;;;;;;29.89;38.56;95056.59;4999116;28;20749;-59
2022/08/10 10:03:05;;;;;;;;;;;;;;;29.96;38.24;95062.09;4986050;28;20012;-59
2022/08/10 10:05:30;;;;;;;;;;;;;;;30.04;38.76;95057.31;4988798;28;19922;-60
2022/08/10 10:08:01;;;;;;;;;;;;;;;30.13;38.62;95053.28;4980699;28;20393;-59
2022/08/10 10:10:50;;;;;;;;;;;;;;;30.19;38.14;95057.28;4986209;28;19925;-59
2022/08/10 10:13:17;;;;;;;;;;;;;;;30.29;38.21;95060.97;4990529;28;19913;-58
2022/08/10 10:15:42;;;;;;;;;;;;;;;30.37;37.72;95056.19;5001284;28;19920;-58
2022/08/10 10:18:26;;;;;;;;;;;;;;;30.40;38.04;95052.31;5000853;28;19914;-59
2022/08/10 10:20:54;;;;;;;;;;;;;;;30.52;37.71;95051.38;5001034;28;19936;-59
2022/08/10 10:23:38;;;;;;;;;;;;;;;30.59;37.57;95038.88;5001854;28;19918;-61
2022/08/10 10:26:22;;;;;;;;;;;;;;;30.66;37.21;95050.59;5002266;28;20443;-60
2022/08/10 10:28:59;;;;;;;;;;;;;;;30.61;37.08;95028.00;5000789;28;20376;-56
2022/08/10 10:31:32;;;;;;;;;;;;;;;30.83;37.54;95039.69;4993576;28;19917;-57
2022/08/10 10:34:01;;;;;;;;;;;;;;;30.90;37.34;95038.94;4995726;28;19928;-58
2022/08/10 10:36:26;;;;;;;;;;;;;;;30.86;37.11;95035.81;5002271;28;19976;-58
2022/08/10 10:38:53;;;;;;;;;;;;;;;30.82;37.54;95043.00;5001043;28;19917;-59
2022/08/10 10:41:38;;;;;;;;;;;;;;;30.82;37.07;95043.75;4988656;28;19964;-60
2022/08/10 10:44:20;;;;;;;;;;;;;;;30.77;37.39;95030.88;4988577;28;19956;-58
2022/08/10 10:46:51;;;;;;;;;;;;;;;30.68;37.33;95030.75;4995755;28;19928;-58
2022/08/10 10:49:20;;;;;;;;;;;;;;;30.59;37.64;95033.34;5004591;28;20377;-57
2022/08/10 10:52:04;;;;;;;;;;;;;;;30.56;37.75;95034.47;5005338;28;20378;-57
2022/08/10 10:54:39;;;;;;;;;;;;;;;30.48;37.95;95028.22;5001303;28;19921;-58
2022/08/10 10:57:10;;;;;;;;;;;;;;;30.38;37.84;95030.09;5003415;28;19925;-58
2022/08/10 10:59:54;;;;;;;;;;;;;;;30.26;38.14;95029.72;5004038;28;19920;-59
2022/08/10 11:02:23;;;;;;;;;;;;;;;30.20;38.50;95031.22;5011487;28;20551;-58
2022/08/10 11:05:06;;;;;;;;;;;;;;;30.14;38.53;95022.41;5005082;28;19917;-56
2022/08/10 11:07:37;;;;;;;;;;;;;;;30.07;38.85;95016.91;5007956;28;19924;-59
2022/08/10 11:10:09;;;;;;;;;;;;;;;30.00;39.41;95029.41;5014834;28;20459;-56
2022/08/10 11:12:46;;;;;;;;;;;;;;;29.93;39.29;95024.63;4998440;28;20549;-57
2022/08/10 11:15:15;;;;;;;;;;;;;;;29.91;39.21;95026.47;4994027;28;20320;-59
2022/08/10 11:17:47;;;;;;;;;;;;;;;29.82;39.47;95035.28;4970568;28;19988;-57
2022/08/10 11:20:23;;;;;;;;;;;;;;;29.74;39.54;95029.75;4988477;28;19914;-58
2022/08/10 11:22:48;;;;;;;;;;;;;;;29.70;39.24;95023.91;4967105;28;20345;-56
2022/08/10 11:25:19;;;;;;;;;;;;;;;29.66;39.81;95027.59;4983385;28;19972;-58
2022/08/10 11:27:47;;;;;;;;;;;;;;;29.60;39.71;95035.28;4984587;28;20538;-56
2022/08/10 11:30:14;;;;;;;;;;;;;;;29.55;39.66;95016.91;4985333;28;19972;-57
2022/08/10 11:32:42;;;;;;;;;;;;;;;29.54;39.60;95024.44;4971219;28;20503;-56
2022/08/10 11:35:08;;;;;;;;;;;;;;;29.50;40.09;95017.84;4984421;28;20020;-59
2022/08/10 11:37:56;;;;;;;;;;;;;;;29.47;39.87;95016.91;4981814;28;20016;-57
2022/08/10 11:40:54;;;;;;;;;;;;;;;29.41;40.14;95013.59;4985948;28;19917;-58
2022/08/10 11:43:25;;;;;;;;;;;;;;;29.37;40.32;95007.75;4959403;28;19956;-59
2022/08/10 11:46:03;;;;;;;;;;;;;;;29.33;40.53;94995.63;4969588;28;19945;-59
2022/08/10 11:48:28;;;;;;;;;;;;;;;29.30;40.27;95004.97;4979634;28;19917;-58
2022/08/10 11:50:58;;;;;;;;;;;;;;;29.28;40.75;94999.28;4982061;28;20522;-58
2022/08/10 11:53:30;;;;;;;;;;;;;;;29.25;40.17;95000.38;4970807;28;20325;-58
2022/08/10 11:55:57;;;;;;;;;;;;;;;29.22;40.35;95001.44;4967103;28;19913;-59
2022/08/10 12:01:08;;;;;;;;;;;;;;;29.14;40.58;95006.19;4984774;28;20404;-58
2022/08/10 12:03:35;;;;;;;;;;;;;;;28.98;40.38;94990.94;4966440;28;19918;-57
2022/08/10 12:06:00;;;;;;;;;;;;;;;29.09;40.45;95014.63;5000510;28;19921;-58
2022/08/10 12:08:25;;;;;;;;;;;;;;;29.08;40.37;95019.41;4969043;28;20278;-58
2022/08/10 12:10:51;;;;;;;;;;;;;;;29.05;40.41;95020.47;4983232;28;19976;-58
2022/08/10 12:13:27;;;;;;;;;;;;;;;29.03;40.08;95023.06;4985182;28;19925;-58
2022/08/10 12:16:07;;;;;;;;;;;;;;;28.98;40.65;95034.94;4978912;28;19918;-59
2022/08/10 12:18:35;;;;;;;;;;;;;;;28.98;40.35;95040.44;4984862;28;20165;-57
2022/08/10 12:21:02;;;;;;;;;;;;;;;28.91;40.17;95054.91;4982455;28;19922;-57
2022/08/10 12:23:44;;;;;;;;;;;;;;;28.89;40.46;95041.00;4983834;28;19968;-57
2022/08/10 12:26:12;;;;;;;;;;;;;;;28.86;40.68;95036.59;4984497;28;19917;-56
2022/08/10 12:28:38;;;;;;;;;;;;;;;28.81;40.73;95039.47;4983861;28;19964;-56
2022/08/10 12:31:04;;;;;;;;;;;;;;;28.77;40.95;95045.34;4984208;28;19917;-56
2022/08/10 12:33:34;;;;;;;;;;;;;;;28.73;41.39;95028.47;4981749;28;19912;-56
2022/08/10 12:36:03;;;;;;;;;;;;;;;28.69;41.23;95021.13;4984599;28;20082;-56
2022/08/10 12:38:47;;;;;;;;;;;;;;;28.67;41.08;95023.66;4986768;28;19921;-57
2022/08/10 12:41:16;;;;;;;;;;;;;;;28.66;41.58;95022.19;4994469;28;19924;-56
2022/08/10 12:43:45;;;;;;;;;;;;;;;28.62;41.37;95010.78;5003547;28;19917;-57
2022/08/10 12:46:10;;;;;;;;;;;;;;;28.59;41.69;95018.09;4990519;28;19917;-58
2022/08/10 12:48:42;;;;;;;;;;;;;;;28.60;42.23;95013.34;4989855;28;19928;-57
2022/08/10 12:51:16;;;;;;;;;;;;;;;28.59;42.00;95006.38;4983849;28;19972;-58
2022/08/10 12:53:52;;;;;;;;;;;;;;;28.62;41.75;95005.28;4982112;28;20391;-58
2022/08/10 12:56:24;;;;;;;;;;;;;;;28.66;41.51;95003.66;4993181;28;19921;-57
2022/08/10 12:58:49;;;;;;;;;;;;;;;28.70;41.40;95011.56;4997023;28;19960;-57
2022/08/10 13:01:16;;;;;;;;;;;;;;;28.79;41.54;95000.81;4982622;28;19944;-56
2022/08/10 13:03:41;;;;;;;;;;;;;;;28.87;41.38;95009.81;4991290;28;20395;-59